Time,TemperatureF,DewpointF,PressureIn,WindDirection,WindDirectionDegrees,WindSpeedMPH,WindSpeedGustMPH,Humidity,HourlyPrecipIn,Conditions,Clouds,dailyrainin,SolarRadiationWatts/m^2,SoftwareType,DateUTC
2013-04-03 00:02:00,33.0,32.0,-100.00,NE,40,10.0,18.0,97,0.00,,,0.67,0.000000,,2013-04-03 05:02:00,
2013-04-03 00:33:00,34.0,30.0,-100.00,ENE,57,11.0,18.0,84,0.00,,,0.67,0.000000,,2013-04-03 05:33:00,
2013-04-03 00:42:00,34.0,30.0,-100.00,ENE,57,11.0,18.0,84,0.00,,,0.67,0.000000,,2013-04-03 05:42:00,
2013-04-03 00:52:00,34.0,30.0,-100.00,ENE,57,11.0,18.0,84,0.00,,,0.67,0.000000,,2013-04-03 05:52:00,
2013-04-03 01:02:00,34.0,30.0,-100.00,ENE,57,11.0,18.0,84,0.00,,,0.67,0.000000,,2013-04-03 06:02:00,
2013-04-03 01:32:00,34.0,24.0,-100.00,East,79,12.0,21.0,67,0.00,,,0.67,0.000000,,2013-04-03 06:32:00,
2013-04-03 01:42:00,34.0,24.0,-100.00,East,79,12.0,21.0,67,0.00,,,0.67,0.000000,,2013-04-03 06:42:00,
2013-04-03 01:52:00,34.0,24.0,-100.00,East,79,12.0,21.0,67,0.00,,,0.67,0.000000,,2013-04-03 06:52:00,
2013-04-03 02:02:00,34.0,24.0,-100.00,East,79,12.0,21.0,67,0.00,,,0.67,0.000000,,2013-04-03 07:02:00,
2013-04-03 02:33:00,35.0,21.0,-100.00,ENE,61,13.0,22.0,56,0.00,,,-99.99,0.000000,,2013-04-03 07:33:00,
2013-04-03 02:42:00,35.0,21.0,-100.00,ENE,61,13.0,22.0,56,0.00,,,-99.99,0.000000,,2013-04-03 07:42:00,
2013-04-03 02:53:00,35.0,21.0,-100.00,ENE,61,13.0,22.0,56,0.00,,,-99.99,0.000000,,2013-04-03 07:53:00,
2013-04-03 03:03:00,35.0,21.0,-100.00,ENE,61,13.0,22.0,56,0.00,,,-99.99,0.000000,,2013-04-03 08:03:00,
2013-04-03 03:33:00,34.0,19.0,-100.00,NE,50,13.0,24.0,54,0.00,,,0.67,0.000000,,2013-04-03 08:33:00,
2013-04-03 03:43:00,34.0,19.0,-100.00,NE,50,13.0,24.0,54,0.00,,,0.67,0.000000,,2013-04-03 08:43:00,
2013-04-03 03:52:00,34.0,19.0,-100.00,NE,50,13.0,24.0,54,0.00,,,0.67,0.000000,,2013-04-03 08:52:00,
2013-04-03 04:02:00,34.0,19.0,-100.00,NE,50,13.0,24.0,54,0.00,,,0.67,0.000000,,2013-04-03 09:02:00,
2013-04-03 04:33:00,35.0,20.0,-100.00,ENE,61,16.0,29.0,53,0.00,,,0.67,0.000000,,2013-04-03 09:33:00,
2013-04-03 04:43:00,35.0,20.0,-100.00,ENE,61,16.0,29.0,53,0.00,,,0.67,0.000000,,2013-04-03 09:43:00,
2013-04-03 04:53:00,35.0,20.0,-100.00,ENE,61,16.0,29.0,53,0.00,,,0.67,0.000000,,2013-04-03 09:53:00,
2013-04-03 05:03:00,35.0,20.0,-100.00,ENE,61,16.0,29.0,53,0.00,,,0.67,0.000000,,2013-04-03 10:03:00,
2013-04-03 05:33:00,35.0,21.0,-100.00,ENE,73,18.0,30.0,56,0.00,,,0.67,0.000000,,2013-04-03 10:33:00,
2013-04-03 05:43:00,35.0,21.0,-100.00,ENE,73,18.0,30.0,56,0.00,,,0.67,0.000000,,2013-04-03 10:43:00,
2013-04-03 05:53:00,35.0,21.0,-100.00,ENE,73,18.0,30.0,56,0.00,,,0.67,0.000000,,2013-04-03 10:53:00,
2013-04-03 06:02:00,35.0,21.0,-100.00,ENE,73,18.0,30.0,56,0.00,,,0.67,0.000000,,2013-04-03 11:02:00,
2013-04-03 06:33:00,35.0,20.0,-100.00,ENE,62,17.0,29.0,55,0.00,,,-99.99,0.000000,,2013-04-03 11:33:00,
2013-04-03 06:42:00,35.0,20.0,-100.00,ENE,62,17.0,29.0,55,0.00,,,-99.99,0.000000,,2013-04-03 11:42:00,
2013-04-03 06:53:00,35.0,20.0,-100.00,ENE,62,17.0,29.0,55,0.00,,,-99.99,0.000000,,2013-04-03 11:53:00,
2013-04-03 07:02:00,35.0,20.0,-100.00,ENE,62,17.0,29.0,55,0.00,,,-99.99,0.000000,,2013-04-03 12:02:00,
2013-04-03 07:33:00,35.0,20.0,-100.00,ENE,57,17.0,28.0,53,0.00,,,-99.99,0.000000,,2013-04-03 12:33:00,
2013-04-03 07:42:00,35.0,20.0,-100.00,ENE,57,17.0,28.0,53,0.00,,,-99.99,0.000000,,2013-04-03 12:42:00,
2013-04-03 07:52:00,35.0,20.0,-100.00,ENE,57,17.0,28.0,53,0.00,,,-99.99,0.000000,,2013-04-03 12:52:00,
2013-04-03 08:02:00,35.0,20.0,-100.00,ENE,57,17.0,28.0,53,0.00,,,-99.99,0.000000,,2013-04-03 13:02:00,
2013-04-03 08:32:00,35.0,18.0,-100.00,NE,48,17.0,27.0,49,0.00,,,0.67,24.000000,,2013-04-03 13:32:00,
2013-04-03 08:42:00,35.0,18.0,-100.00,NE,48,17.0,27.0,49,0.00,,,0.67,24.000000,,2013-04-03 13:42:00,
2013-04-03 08:52:00,35.0,18.0,-100.00,NE,48,17.0,27.0,49,0.00,,,0.67,24.000000,,2013-04-03 13:52:00,
2013-04-03 09:02:00,35.0,18.0,-100.00,NE,48,17.0,27.0,49,0.00,,,0.67,24.000000,,2013-04-03 14:02:00,
2013-04-03 09:32:00,36.0,19.0,-100.00,ENE,57,15.0,26.0,50,0.00,,,0.67,71.000000,,2013-04-03 14:32:00,
2013-04-03 09:43:00,36.0,19.0,-100.00,ENE,57,15.0,26.0,50,0.00,,,0.67,71.000000,,2013-04-03 14:43:00,
2013-04-03 09:52:00,36.0,19.0,-100.00,ENE,57,15.0,26.0,50,0.00,,,0.67,71.000000,,2013-04-03 14:52:00,
2013-04-03 10:02:00,36.0,19.0,-100.00,ENE,57,15.0,26.0,50,0.00,,,0.67,71.000000,,2013-04-03 15:02:00,
2013-04-03 10:33:00,37.0,19.0,-100.00,ENE,70,12.0,27.0,47,0.00,,,0.67,180.000000,,2013-04-03 15:33:00,
2013-04-03 10:43:00,37.0,19.0,-100.00,ENE,70,12.0,27.0,47,0.00,,,0.67,180.000000,,2013-04-03 15:43:00,
2013-04-03 10:53:00,37.0,19.0,-100.00,ENE,70,12.0,27.0,47,0.00,,,0.67,180.000000,,2013-04-03 15:53:00,
2013-04-03 11:03:00,37.0,19.0,-100.00,ENE,70,12.0,27.0,47,0.00,,,0.67,180.000000,,2013-04-03 16:03:00,
2013-04-03 11:33:00,39.0,19.0,-100.00,ENE,75,14.0,23.0,45,0.00,,,0.67,386.000000,,2013-04-03 16:33:00,
2013-04-03 11:44:00,39.0,19.0,-100.00,ENE,75,14.0,23.0,45,0.00,,,0.67,386.000000,,2013-04-03 16:44:00,
2013-04-03 11:53:00,39.0,19.0,-100.00,ENE,75,14.0,23.0,45,0.00,,,0.67,386.000000,,2013-04-03 16:53:00,
2013-04-03 12:03:00,39.0,19.0,-100.00,ENE,75,14.0,23.0,45,0.00,,,0.67,386.000000,,2013-04-03 17:03:00,
2013-04-03 12:34:00,40.0,20.0,-100.00,ENE,70,14.0,24.0,44,0.00,,,0.60,515.000000,,2013-04-03 17:34:00,
2013-04-03 12:46:00,40.0,20.0,-100.00,ENE,70,14.0,24.0,44,0.00,,,0.60,515.000000,,2013-04-03 17:46:00,
2013-04-03 12:54:00,40.0,20.0,-100.00,ENE,70,14.0,24.0,44,0.00,,,0.60,515.000000,,2013-04-03 17:54:00,
2013-04-03 13:02:00,40.0,20.0,-100.00,ENE,70,14.0,24.0,44,0.00,,,0.60,515.000000,,2013-04-03 18:02:00,
2013-04-03 13:34:00,44.0,22.0,-100.00,ENE,76,15.0,25.0,41,0.00,,,0.49,858.000000,,2013-04-03 18:34:00,
2013-04-03 13:43:00,44.0,22.0,-100.00,ENE,76,15.0,25.0,41,0.00,,,0.49,858.000000,,2013-04-03 18:43:00,
2013-04-03 13:52:00,44.0,22.0,-100.00,ENE,76,15.0,25.0,41,0.00,,,0.49,858.000000,,2013-04-03 18:52:00,
2013-04-03 14:03:00,44.0,22.0,-100.00,ENE,76,15.0,25.0,41,0.00,,,0.49,858.000000,,2013-04-03 19:03:00,
2013-04-03 14:32:00,47.0,20.0,-100.00,East,93,12.0,23.0,34,0.00,,,0.31,894.000000,,2013-04-03 19:32:00,
2013-04-03 14:42:00,47.0,20.0,-100.00,East,93,12.0,23.0,34,0.00,,,0.31,894.000000,,2013-04-03 19:42:00,
2013-04-03 14:52:00,47.0,20.0,-100.00,East,93,12.0,23.0,34,0.00,,,0.31,894.000000,,2013-04-03 19:52:00,
2013-04-03 15:02:00,47.0,20.0,-100.00,East,93,12.0,23.0,34,0.00,,,0.31,894.000000,,2013-04-03 20:02:00,
2013-04-03 15:33:00,46.0,21.0,-100.00,ENE,61,9.0,19.0,36,0.00,,,0.26,358.000000,,2013-04-03 20:33:00,
2013-04-03 15:42:00,46.0,21.0,-100.00,ENE,61,9.0,19.0,36,0.00,,,0.26,358.000000,,2013-04-03 20:42:00,
2013-04-03 15:53:00,46.0,21.0,-100.00,ENE,61,9.0,19.0,36,0.00,,,0.26,358.000000,,2013-04-03 20:53:00,
2013-04-03 16:02:00,46.0,21.0,-100.00,ENE,61,9.0,19.0,36,0.00,,,0.26,358.000000,,2013-04-03 21:02:00,
2013-04-03 16:33:00,46.0,22.0,-100.00,ENE,59,8.0,14.0,38,0.00,,,-99.99,133.000000,,2013-04-03 21:33:00,
2013-04-03 16:42:00,46.0,22.0,-100.00,ENE,59,8.0,14.0,38,0.00,,,-99.99,133.000000,,2013-04-03 21:42:00,
2013-04-03 16:52:00,46.0,22.0,-100.00,ENE,59,8.0,14.0,38,0.00,,,-99.99,133.000000,,2013-04-03 21:52:00,
2013-04-03 17:02:00,46.0,22.0,-100.00,ENE,59,8.0,14.0,38,0.00,,,-99.99,133.000000,,2013-04-03 22:02:00,
2013-04-03 17:33:00,45.0,23.0,-100.00,NE,55,7.0,14.0,41,0.00,,,0.11,72.000000,,2013-04-03 22:33:00,
2013-04-03 17:42:00,45.0,23.0,-100.00,NE,55,7.0,14.0,41,0.00,,,0.11,72.000000,,2013-04-03 22:42:00,
2013-04-03 17:52:00,45.0,23.0,-100.00,NE,55,7.0,14.0,41,0.00,,,0.11,72.000000,,2013-04-03 22:52:00,
2013-04-03 18:02:00,45.0,23.0,-100.00,NE,55,7.0,14.0,41,0.00,,,0.11,72.000000,,2013-04-03 23:02:00,
2013-04-03 18:33:00,43.0,25.0,-100.00,ENE,66,6.0,12.0,48,0.00,,,0.07,61.000000,,2013-04-03 23:33:00,
2013-04-03 18:43:00,43.0,25.0,-100.00,ENE,66,6.0,12.0,48,0.00,,,0.07,61.000000,,2013-04-03 23:43:00,
2013-04-03 18:54:00,43.0,25.0,-100.00,ENE,66,6.0,12.0,48,0.00,,,0.07,61.000000,,2013-04-03 23:54:00,
2013-04-03 19:03:00,43.0,25.0,-100.00,ENE,66,6.0,12.0,48,0.00,,,0.07,61.000000,,2013-04-04 00:03:00,
2013-04-03 19:32:00,40.0,27.0,-100.00,NE,52,5.0,12.0,60,0.03,,,0.10,41.000000,,2013-04-04 00:32:00,
2013-04-03 19:43:00,40.0,27.0,-100.00,NE,52,5.0,12.0,60,0.03,,,0.10,41.000000,,2013-04-04 00:43:00,
2013-04-03 19:52:00,40.0,27.0,-100.00,NE,52,5.0,12.0,60,0.03,,,0.10,41.000000,,2013-04-04 00:52:00,
2013-04-03 20:02:00,40.0,27.0,-100.00,NE,52,5.0,12.0,60,0.03,,,0.10,41.000000,,2013-04-04 01:02:00,
2013-04-03 20:32:00,40.0,28.0,-100.00,NE,54,5.0,9.0,63,0.01,,,0.08,6.000000,,2013-04-04 01:32:00,
2013-04-03 20:43:00,40.0,28.0,-100.00,NE,54,5.0,9.0,63,0.01,,,0.08,6.000000,,2013-04-04 01:43:00,
2013-04-03 20:52:00,40.0,28.0,-100.00,NE,54,5.0,9.0,63,0.01,,,0.08,6.000000,,2013-04-04 01:52:00,
2013-04-03 21:02:00,40.0,28.0,-100.00,NE,54,5.0,9.0,63,0.01,,,0.08,6.000000,,2013-04-04 02:02:00,
2013-04-03 21:32:00,38.0,34.0,-100.00,NE,34,5.0,9.0,85,0.01,,,0.05,0.000000,,2013-04-04 02:32:00,
2013-04-03 21:42:00,38.0,34.0,-100.00,NE,34,5.0,9.0,85,0.01,,,0.05,0.000000,,2013-04-04 02:42:00,
2013-04-03 21:53:00,38.0,34.0,-100.00,NE,34,5.0,9.0,85,0.01,,,0.05,0.000000,,2013-04-04 02:53:00,
2013-04-03 22:02:00,38.0,34.0,-100.00,NE,34,5.0,9.0,85,0.01,,,0.05,0.000000,,2013-04-04 03:02:00,
2013-04-03 22:34:00,39.0,31.0,-100.00,NNE,31,6.0,11.0,73,0.01,,,0.06,0.000000,,2013-04-04 03:34:00,
2013-04-03 22:45:00,39.0,31.0,-100.00,NNE,31,6.0,11.0,73,0.01,,,0.06,0.000000,,2013-04-04 03:45:00,
2013-04-03 22:53:00,39.0,31.0,-100.00,NNE,31,6.0,11.0,73,0.01,,,0.06,0.000000,,2013-04-04 03:53:00,
2013-04-03 23:03:00,39.0,31.0,-100.00,NNE,31,6.0,11.0,73,0.01,,,0.06,0.000000,,2013-04-04 04:03:00,
2013-04-03 23:34:00,41.0,27.0,-100.00,ENE,66,9.0,13.0,57,0.00,,,0.06,0.000000,,2013-04-04 04:34:00,
2013-04-03 23:43:00,41.0,27.0,-100.00,ENE,66,9.0,13.0,57,0.00,,,0.06,0.000000,,2013-04-04 04:43:00,
2013-04-03 23:53:00,41.0,27.0,-100.00,ENE,66,9.0,13.0,57,0.00,,,0.06,0.000000,,2013-04-04 04:53:00,